sensor_id;sensor_type;location;lat;lon;timestamp;temperature;humidity
51476;DHT22;37554;50.362;7.568;2023-05-31T00:02:02;22.70;42.30
51476;DHT22;37554;50.362;7.568;2023-05-31T00:04:28;22.70;42.30
51476;DHT22;37554;50.362;7.568;2023-05-31T00:06:54;22.70;42.30
51476;DHT22;37554;50.362;7.568;2023-05-31T00:09:19;22.70;42.40
51476;DHT22;37554;50.362;7.568;2023-05-31T00:11:45;22.70;42.40
51476;DHT22;37554;50.362;7.568;2023-05-31T00:14:10;22.70;42.40
51476;DHT22;37554;50.362;7.568;2023-05-31T00:16:36;22.70;42.40
51476;DHT22;37554;50.362;7.568;2023-05-31T00:19:02;22.60;42.40
51476;DHT22;37554;50.362;7.568;2023-05-31T00:21:27;22.70;42.50
51476;DHT22;37554;50.362;7.568;2023-05-31T00:23:53;22.70;42.50
51476;DHT22;37554;50.362;7.568;2023-05-31T00:26:19;22.60;42.50
51476;DHT22;37554;50.362;7.568;2023-05-31T00:28:45;22.60;42.50
51476;DHT22;37554;50.362;7.568;2023-05-31T00:31:10;22.60;42.60
51476;DHT22;37554;50.362;7.568;2023-05-31T00:33:36;22.60;42.50
51476;DHT22;37554;50.362;7.568;2023-05-31T00:36:02;22.60;42.60
51476;DHT22;37554;50.362;7.568;2023-05-31T00:38:28;22.60;42.60
51476;DHT22;37554;50.362;7.568;2023-05-31T00:40:53;22.60;42.70
51476;DHT22;37554;50.362;7.568;2023-05-31T00:43:19;22.60;42.70
51476;DHT22;37554;50.362;7.568;2023-05-31T00:45:45;22.60;42.70
51476;DHT22;37554;50.362;7.568;2023-05-31T00:48:10;22.60;42.70
51476;DHT22;37554;50.362;7.568;2023-05-31T00:50:37;22.60;42.70
51476;DHT22;37554;50.362;7.568;2023-05-31T00:53:03;22.60;42.70
51476;DHT22;37554;50.362;7.568;2023-05-31T00:55:30;22.50;43.30
51476;DHT22;37554;50.362;7.568;2023-05-31T00:57:57;22.50;42.70
51476;DHT22;37554;50.362;7.568;2023-05-31T01:00:23;22.50;42.70
51476;DHT22;37554;50.362;7.568;2023-05-31T01:02:50;22.50;42.70
51476;DHT22;37554;50.362;7.568;2023-05-31T01:05:17;22.50;42.70
51476;DHT22;37554;50.362;7.568;2023-05-31T01:07:44;22.50;42.70
51476;DHT22;37554;50.362;7.568;2023-05-31T01:10:10;22.50;42.70
51476;DHT22;37554;50.362;7.568;2023-05-31T01:15:27;22.50;42.90
51476;DHT22;37554;50.362;7.568;2023-05-31T01:18:04;22.50;42.80
51476;DHT22;37554;50.362;7.568;2023-05-31T01:20:35;22.40;42.90
51476;DHT22;37554;50.362;7.568;2023-05-31T01:28:14;22.40;42.90
51476;DHT22;37554;50.362;7.568;2023-05-31T01:30:42;22.40;43.00
51476;DHT22;37554;50.362;7.568;2023-05-31T01:33:09;22.40;43.00
51476;DHT22;37554;50.362;7.568;2023-05-31T01:35:38;22.40;43.70
51476;DHT22;37554;50.362;7.568;2023-05-31T01:38:04;22.40;43.00
51476;DHT22;37554;50.362;7.568;2023-05-31T01:40:30;22.30;43.00
51476;DHT22;37554;50.362;7.568;2023-05-31T01:42:57;22.30;43.10
51476;DHT22;37554;50.362;7.568;2023-05-31T01:45:24;22.30;43.10
51476;DHT22;37554;50.362;7.568;2023-05-31T01:47:55;22.30;43.10
51476;DHT22;37554;50.362;7.568;2023-05-31T01:50:21;22.30;43.20
51476;DHT22;37554;50.362;7.568;2023-05-31T01:52:49;22.30;43.20
51476;DHT22;37554;50.362;7.568;2023-05-31T01:55:14;22.30;43.20
51476;DHT22;37554;50.362;7.568;2023-05-31T01:57:42;22.30;43.30
51476;DHT22;37554;50.362;7.568;2023-05-31T02:00:09;22.30;43.30
51476;DHT22;37554;50.362;7.568;2023-05-31T02:02:39;22.30;43.40
51476;DHT22;37554;50.362;7.568;2023-05-31T02:05:08;22.20;43.40
51476;DHT22;37554;50.362;7.568;2023-05-31T02:07:44;22.20;43.40
51476;DHT22;37554;50.362;7.568;2023-05-31T02:10:10;22.20;44.10
51476;DHT22;37554;50.362;7.568;2023-05-31T02:12:36;22.20;43.50
51476;DHT22;37554;50.362;7.568;2023-05-31T02:15:03;22.20;43.50
51476;DHT22;37554;50.362;7.568;2023-05-31T02:17:29;22.20;43.60
51476;DHT22;37554;50.362;7.568;2023-05-31T02:19:58;22.20;43.60
51476;DHT22;37554;50.362;7.568;2023-05-31T02:22:24;22.10;43.60
51476;DHT22;37554;50.362;7.568;2023-05-31T02:24:50;22.20;43.80
51476;DHT22;37554;50.362;7.568;2023-05-31T02:27:18;22.10;43.70
51476;DHT22;37554;50.362;7.568;2023-05-31T02:29:45;22.10;43.80
51476;DHT22;37554;50.362;7.568;2023-05-31T02:32:10;22.10;43.90
51476;DHT22;37554;50.362;7.568;2023-05-31T02:34:36;22.10;43.90
51476;DHT22;37554;50.362;7.568;2023-05-31T02:37:02;22.10;43.90
51476;DHT22;37554;50.362;7.568;2023-05-31T02:39:28;22.00;44.00
51476;DHT22;37554;50.362;7.568;2023-05-31T02:41:54;22.10;44.10
51476;DHT22;37554;50.362;7.568;2023-05-31T02:44:20;22.00;44.10
51476;DHT22;37554;50.362;7.568;2023-05-31T02:46:46;22.00;44.10
51476;DHT22;37554;50.362;7.568;2023-05-31T02:49:12;22.00;44.20
51476;DHT22;37554;50.362;7.568;2023-05-31T02:51:38;22.00;44.30
51476;DHT22;37554;50.362;7.568;2023-05-31T02:54:03;22.00;44.30
51476;DHT22;37554;50.362;7.568;2023-05-31T02:56:29;22.00;44.30
51476;DHT22;37554;50.362;7.568;2023-05-31T02:58:55;22.00;44.40
51476;DHT22;37554;50.362;7.568;2023-05-31T03:01:21;21.90;44.50
51476;DHT22;37554;50.362;7.568;2023-05-31T03:03:47;21.90;44.50
51476;DHT22;37554;50.362;7.568;2023-05-31T03:06:12;21.90;44.60
51476;DHT22;37554;50.362;7.568;2023-05-31T03:08:42;21.90;44.60
51476;DHT22;37554;50.362;7.568;2023-05-31T03:11:08;21.90;44.70
51476;DHT22;37554;50.362;7.568;2023-05-31T03:13:33;21.90;44.80
51476;DHT22;37554;50.362;7.568;2023-05-31T03:15:59;21.90;44.80
51476;DHT22;37554;50.362;7.568;2023-05-31T03:18:25;21.90;44.90
51476;DHT22;37554;50.362;7.568;2023-05-31T03:20:51;21.90;45.00
51476;DHT22;37554;50.362;7.568;2023-05-31T03:23:17;21.80;45.00
51476;DHT22;37554;50.362;7.568;2023-05-31T03:25:42;21.80;45.00
51476;DHT22;37554;50.362;7.568;2023-05-31T03:28:08;21.80;45.10
51476;DHT22;37554;50.362;7.568;2023-05-31T03:30:33;21.80;45.10
51476;DHT22;37554;50.362;7.568;2023-05-31T03:32:59;21.80;45.20
51476;DHT22;37554;50.362;7.568;2023-05-31T03:35:25;21.80;45.30
51476;DHT22;37554;50.362;7.568;2023-05-31T03:37:52;21.80;45.30
51476;DHT22;37554;50.362;7.568;2023-05-31T03:40:18;21.80;45.40
51476;DHT22;37554;50.362;7.568;2023-05-31T03:42:44;21.70;45.30
51476;DHT22;37554;50.362;7.568;2023-05-31T03:45:09;21.70;45.30
51476;DHT22;37554;50.362;7.568;2023-05-31T03:47:35;21.80;45.40
51476;DHT22;37554;50.362;7.568;2023-05-31T03:50:03;21.70;45.50
51476;DHT22;37554;50.362;7.568;2023-05-31T03:52:28;21.70;45.40
51476;DHT22;37554;50.362;7.568;2023-05-31T03:54:54;21.70;45.50
51476;DHT22;37554;50.362;7.568;2023-05-31T03:57:20;21.70;45.50
51476;DHT22;37554;50.362;7.568;2023-05-31T03:59:45;21.70;45.50
51476;DHT22;37554;50.362;7.568;2023-05-31T04:02:11;21.70;45.50
51476;DHT22;37554;50.362;7.568;2023-05-31T04:04:36;21.70;45.60
51476;DHT22;37554;50.362;7.568;2023-05-31T04:07:02;21.70;45.60
51476;DHT22;37554;50.362;7.568;2023-05-31T04:09:28;21.70;45.70
51476;DHT22;37554;50.362;7.568;2023-05-31T04:11:53;21.70;45.80
51476;DHT22;37554;50.362;7.568;2023-05-31T04:14:19;21.70;45.80
51476;DHT22;37554;50.362;7.568;2023-05-31T04:16:44;21.70;45.90
51476;DHT22;37554;50.362;7.568;2023-05-31T04:19:10;21.70;46.00
51476;DHT22;37554;50.362;7.568;2023-05-31T04:21:36;21.70;46.00
51476;DHT22;37554;50.362;7.568;2023-05-31T04:24:01;21.70;46.00
51476;DHT22;37554;50.362;7.568;2023-05-31T04:26:27;21.70;46.00
51476;DHT22;37554;50.362;7.568;2023-05-31T04:28:54;21.70;46.00
51476;DHT22;37554;50.362;7.568;2023-05-31T04:31:20;21.70;46.10
51476;DHT22;37554;50.362;7.568;2023-05-31T04:33:50;21.70;46.10
51476;DHT22;37554;50.362;7.568;2023-05-31T04:36:16;21.70;46.10
51476;DHT22;37554;50.362;7.568;2023-05-31T04:38:42;21.70;46.10
51476;DHT22;37554;50.362;7.568;2023-05-31T04:41:08;21.70;46.10
51476;DHT22;37554;50.362;7.568;2023-05-31T04:43:34;21.70;46.10
51476;DHT22;37554;50.362;7.568;2023-05-31T04:46:00;21.70;46.10
51476;DHT22;37554;50.362;7.568;2023-05-31T04:48:27;21.70;46.20
51476;DHT22;37554;50.362;7.568;2023-05-31T04:50:52;21.70;46.20
51476;DHT22;37554;50.362;7.568;2023-05-31T04:53:21;21.70;46.20
51476;DHT22;37554;50.362;7.568;2023-05-31T04:55:47;21.70;46.20
51476;DHT22;37554;50.362;7.568;2023-05-31T04:58:12;21.70;46.20
51476;DHT22;37554;50.362;7.568;2023-05-31T05:00:38;21.70;46.20
51476;DHT22;37554;50.362;7.568;2023-05-31T05:03:04;21.80;46.30
51476;DHT22;37554;50.362;7.568;2023-05-31T05:05:29;21.80;46.30
51476;DHT22;37554;50.362;7.568;2023-05-31T05:07:55;21.80;46.30
51476;DHT22;37554;50.362;7.568;2023-05-31T05:10:21;21.80;46.30
51476;DHT22;37554;50.362;7.568;2023-05-31T05:12:46;21.80;46.30
51476;DHT22;37554;50.362;7.568;2023-05-31T05:15:12;21.80;46.20
51476;DHT22;37554;50.362;7.568;2023-05-31T05:17:37;21.80;46.20
51476;DHT22;37554;50.362;7.568;2023-05-31T05:20:03;21.80;46.20
51476;DHT22;37554;50.362;7.568;2023-05-31T05:22:33;21.80;46.20
51476;DHT22;37554;50.362;7.568;2023-05-31T05:24:59;21.80;46.20
51476;DHT22;37554;50.362;7.568;2023-05-31T05:27:25;21.80;46.20
51476;DHT22;37554;50.362;7.568;2023-05-31T05:29:51;21.80;46.30
51476;DHT22;37554;50.362;7.568;2023-05-31T05:32:16;21.90;46.10
51476;DHT22;37554;50.362;7.568;2023-05-31T05:34:42;21.90;46.20
51476;DHT22;37554;50.362;7.568;2023-05-31T05:37:08;21.90;46.10
51476;DHT22;37554;50.362;7.568;2023-05-31T05:39:33;21.90;46.50
51476;DHT22;37554;50.362;7.568;2023-05-31T05:41:59;21.60;47.40
51476;DHT22;37554;50.362;7.568;2023-05-31T05:44:24;21.40;48.20
51476;DHT22;37554;50.362;7.568;2023-05-31T05:46:50;21.30;48.90
51476;DHT22;37554;50.362;7.568;2023-05-31T05:49:16;21.10;49.30
51476;DHT22;37554;50.362;7.568;2023-05-31T05:51:41;21.00;49.60
51476;DHT22;37554;50.362;7.568;2023-05-31T05:54:07;20.90;50.20
51476;DHT22;37554;50.362;7.568;2023-05-31T05:56:33;20.80;50.60
51476;DHT22;37554;50.362;7.568;2023-05-31T05:58:58;20.80;50.50
51476;DHT22;37554;50.362;7.568;2023-05-31T06:01:24;20.80;50.60
51476;DHT22;37554;50.362;7.568;2023-05-31T06:03:52;20.80;50.60
51476;DHT22;37554;50.362;7.568;2023-05-31T06:06:19;20.80;50.80
51476;DHT22;37554;50.362;7.568;2023-05-31T06:08:46;20.80;50.70
51476;DHT22;37554;50.362;7.568;2023-05-31T06:11:12;20.80;50.90
51476;DHT22;37554;50.362;7.568;2023-05-31T06:13:38;20.80;50.70
51476;DHT22;37554;50.362;7.568;2023-05-31T06:16:04;20.90;50.80
51476;DHT22;37554;50.362;7.568;2023-05-31T06:18:31;20.90;50.90
51476;DHT22;37554;50.362;7.568;2023-05-31T06:20:57;21.00;51.10
51476;DHT22;37554;50.362;7.568;2023-05-31T06:23:22;21.00;50.60
51476;DHT22;37554;50.362;7.568;2023-05-31T06:25:48;21.00;50.50
51476;DHT22;37554;50.362;7.568;2023-05-31T06:28:13;21.10;50.50
51476;DHT22;37554;50.362;7.568;2023-05-31T06:30:40;21.10;50.90
51476;DHT22;37554;50.362;7.568;2023-05-31T06:33:07;21.20;51.10
51476;DHT22;37554;50.362;7.568;2023-05-31T06:35:33;21.20;50.80
51476;DHT22;37554;50.362;7.568;2023-05-31T06:37:58;21.20;50.60
51476;DHT22;37554;50.362;7.568;2023-05-31T06:40:24;21.30;50.70
51476;DHT22;37554;50.362;7.568;2023-05-31T06:42:50;21.40;50.10
51476;DHT22;37554;50.362;7.568;2023-05-31T06:45:15;21.30;49.90
51476;DHT22;37554;50.362;7.568;2023-05-31T06:47:41;21.40;50.20
51476;DHT22;37554;50.362;7.568;2023-05-31T06:50:07;21.40;49.40
51476;DHT22;37554;50.362;7.568;2023-05-31T06:52:33;21.40;49.40
51476;DHT22;37554;50.362;7.568;2023-05-31T06:54:59;21.50;49.60
51476;DHT22;37554;50.362;7.568;2023-05-31T06:57:24;21.60;49.50
51476;DHT22;37554;50.362;7.568;2023-05-31T06:59:50;21.70;49.30
51476;DHT22;37554;50.362;7.568;2023-05-31T07:02:16;21.80;49.40
51476;DHT22;37554;50.362;7.568;2023-05-31T07:04:41;21.90;49.20
51476;DHT22;37554;50.362;7.568;2023-05-31T07:07:08;22.00;49.10
51476;DHT22;37554;50.362;7.568;2023-05-31T07:09:35;22.10;48.80
51476;DHT22;37554;50.362;7.568;2023-05-31T07:12:00;22.20;47.90
51476;DHT22;37554;50.362;7.568;2023-05-31T07:14:28;22.30;47.10
51476;DHT22;37554;50.362;7.568;2023-05-31T07:16:54;22.40;46.70
51476;DHT22;37554;50.362;7.568;2023-05-31T07:19:19;22.60;46.40
51476;DHT22;37554;50.362;7.568;2023-05-31T07:21:45;22.60;45.80
51476;DHT22;37554;50.362;7.568;2023-05-31T07:24:11;22.70;45.40
51476;DHT22;37554;50.362;7.568;2023-05-31T07:26:36;22.80;45.00
51476;DHT22;37554;50.362;7.568;2023-05-31T07:29:02;22.90;44.90
51476;DHT22;37554;50.362;7.568;2023-05-31T07:31:28;22.90;44.70
51476;DHT22;37554;50.362;7.568;2023-05-31T07:33:53;23.00;44.30
51476;DHT22;37554;50.362;7.568;2023-05-31T07:36:21;23.00;44.40
51476;DHT22;37554;50.362;7.568;2023-05-31T07:38:50;23.00;44.30
51476;DHT22;37554;50.362;7.568;2023-05-31T07:41:16;23.00;43.60
51476;DHT22;37554;50.362;7.568;2023-05-31T07:43:43;23.10;44.10
51476;DHT22;37554;50.362;7.568;2023-05-31T07:46:10;23.30;43.90
51476;DHT22;37554;50.362;7.568;2023-05-31T07:48:35;23.40;43.80
51476;DHT22;37554;50.362;7.568;2023-05-31T07:51:01;23.50;43.50
51476;DHT22;37554;50.362;7.568;2023-05-31T07:53:27;23.60;43.40
51476;DHT22;37554;50.362;7.568;2023-05-31T07:55:53;23.60;43.60
51476;DHT22;37554;50.362;7.568;2023-05-31T07:58:19;23.70;43.00
51476;DHT22;37554;50.362;7.568;2023-05-31T08:00:45;23.80;42.90
51476;DHT22;37554;50.362;7.568;2023-05-31T08:03:11;23.90;43.20
51476;DHT22;37554;50.362;7.568;2023-05-31T08:05:36;24.00;42.50
51476;DHT22;37554;50.362;7.568;2023-05-31T08:08:02;24.10;42.10
51476;DHT22;37554;50.362;7.568;2023-05-31T08:10:28;24.30;41.90
51476;DHT22;37554;50.362;7.568;2023-05-31T08:12:55;24.40;41.80
51476;DHT22;37554;50.362;7.568;2023-05-31T08:15:21;24.50;41.80
51476;DHT22;37554;50.362;7.568;2023-05-31T08:17:46;24.60;41.30
51476;DHT22;37554;50.362;7.568;2023-05-31T08:20:16;24.80;40.90
51476;DHT22;37554;50.362;7.568;2023-05-31T08:22:43;24.90;41.80
51476;DHT22;37554;50.362;7.568;2023-05-31T08:25:10;24.90;40.80
51476;DHT22;37554;50.362;7.568;2023-05-31T08:27:39;25.00;40.20
51476;DHT22;37554;50.362;7.568;2023-05-31T08:30:09;25.00;39.70
51476;DHT22;37554;50.362;7.568;2023-05-31T08:32:36;25.10;39.60
51476;DHT22;37554;50.362;7.568;2023-05-31T08:35:03;25.10;39.70
51476;DHT22;37554;50.362;7.568;2023-05-31T08:37:28;25.20;40.20
51476;DHT22;37554;50.362;7.568;2023-05-31T08:39:54;25.30;39.20
51476;DHT22;37554;50.362;7.568;2023-05-31T17:00:19;27.90;31.50
51476;DHT22;37554;50.362;7.568;2023-05-31T17:02:45;27.70;32.50
51476;DHT22;37554;50.362;7.568;2023-05-31T17:05:10;27.70;32.80
51476;DHT22;37554;50.362;7.568;2023-05-31T17:07:38;27.70;33.00
51476;DHT22;37554;50.362;7.568;2023-05-31T17:10:05;27.70;32.90
51476;DHT22;37554;50.362;7.568;2023-05-31T17:12:31;27.80;33.00
51476;DHT22;37554;50.362;7.568;2023-05-31T17:14:57;27.80;33.10
51476;DHT22;37554;50.362;7.568;2023-05-31T17:17:24;27.80;32.90
51476;DHT22;37554;50.362;7.568;2023-05-31T17:19:49;27.70;32.70
51476;DHT22;37554;50.362;7.568;2023-05-31T17:22:15;27.70;33.00
51476;DHT22;37554;50.362;7.568;2023-05-31T17:24:41;27.70;33.30
51476;DHT22;37554;50.362;7.568;2023-05-31T17:27:07;27.70;33.50
51476;DHT22;37554;50.362;7.568;2023-05-31T17:29:32;27.70;33.50
51476;DHT22;37554;50.362;7.568;2023-05-31T17:31:58;27.60;33.80
51476;DHT22;37554;50.362;7.568;2023-05-31T17:34:24;27.60;33.70
51476;DHT22;37554;50.362;7.568;2023-05-31T17:36:49;27.50;33.60
51476;DHT22;37554;50.362;7.568;2023-05-31T17:39:15;27.50;33.10
51476;DHT22;37554;50.362;7.568;2023-05-31T17:41:40;27.50;33.20
51476;DHT22;37554;50.362;7.568;2023-05-31T17:44:06;27.50;33.30
51476;DHT22;37554;50.362;7.568;2023-05-31T17:46:32;27.50;33.20
51476;DHT22;37554;50.362;7.568;2023-05-31T17:48:57;27.40;32.90
51476;DHT22;37554;50.362;7.568;2023-05-31T17:51:23;27.40;32.80
51476;DHT22;37554;50.362;7.568;2023-05-31T17:53:49;27.40;32.80
51476;DHT22;37554;50.362;7.568;2023-05-31T17:56:14;27.40;33.20
51476;DHT22;37554;50.362;7.568;2023-05-31T17:58:40;27.50;33.40
51476;DHT22;37554;50.362;7.568;2023-05-31T18:01:06;27.50;33.20
51476;DHT22;37554;50.362;7.568;2023-05-31T18:03:32;27.40;33.40
51476;DHT22;37554;50.362;7.568;2023-05-31T18:05:57;27.40;33.60
51476;DHT22;37554;50.362;7.568;2023-05-31T18:08:23;27.40;33.60
51476;DHT22;37554;50.362;7.568;2023-05-31T18:10:51;27.30;33.50
51476;DHT22;37554;50.362;7.568;2023-05-31T18:13:16;27.20;33.70
51476;DHT22;37554;50.362;7.568;2023-05-31T18:15:42;27.10;33.90
51476;DHT22;37554;50.362;7.568;2023-05-31T18:18:08;27.20;34.10
51476;DHT22;37554;50.362;7.568;2023-05-31T18:20:33;27.10;34.00
51476;DHT22;37554;50.362;7.568;2023-05-31T18:22:59;27.10;34.20
51476;DHT22;37554;50.362;7.568;2023-05-31T18:25:25;27.10;34.50
51476;DHT22;37554;50.362;7.568;2023-05-31T18:27:57;27.10;34.40
51476;DHT22;37554;50.362;7.568;2023-05-31T18:30:22;27.10;34.70
51476;DHT22;37554;50.362;7.568;2023-05-31T18:32:48;27.10;34.70
51476;DHT22;37554;50.362;7.568;2023-05-31T18:35:14;27.00;34.80
51476;DHT22;37554;50.362;7.568;2023-05-31T18:37:40;27.00;35.20
51476;DHT22;37554;50.362;7.568;2023-05-31T18:40:06;26.90;35.40
51476;DHT22;37554;50.362;7.568;2023-05-31T18:42:32;26.90;35.30
51476;DHT22;37554;50.362;7.568;2023-05-31T18:44:59;26.80;35.30
51476;DHT22;37554;50.362;7.568;2023-05-31T18:47:25;26.80;35.60
51476;DHT22;37554;50.362;7.568;2023-05-31T18:49:51;26.80;35.70
51476;DHT22;37554;50.362;7.568;2023-05-31T18:52:17;26.70;36.10
51476;DHT22;37554;50.362;7.568;2023-05-31T18:54:43;26.60;36.10
51476;DHT22;37554;50.362;7.568;2023-05-31T18:57:09;26.60;36.10
51476;DHT22;37554;50.362;7.568;2023-05-31T18:59:34;26.60;36.20
51476;DHT22;37554;50.362;7.568;2023-05-31T19:02:01;26.50;36.30
51476;DHT22;37554;50.362;7.568;2023-05-31T19:04:27;26.40;36.50
51476;DHT22;37554;50.362;7.568;2023-05-31T19:06:53;26.30;36.50
51476;DHT22;37554;50.362;7.568;2023-05-31T19:09:19;26.30;36.40
51476;DHT22;37554;50.362;7.568;2023-05-31T19:11:44;26.30;36.70
51476;DHT22;37554;50.362;7.568;2023-05-31T19:14:14;26.20;36.70
51476;DHT22;37554;50.362;7.568;2023-05-31T19:16:41;26.20;36.80
51476;DHT22;37554;50.362;7.568;2023-05-31T19:19:06;26.10;36.80
51476;DHT22;37554;50.362;7.568;2023-05-31T19:21:32;26.10;36.80
51476;DHT22;37554;50.362;7.568;2023-05-31T19:23:59;26.10;36.80
51476;DHT22;37554;50.362;7.568;2023-05-31T19:26:25;26.00;37.20
51476;DHT22;37554;50.362;7.568;2023-05-31T19:28:51;25.90;37.50
51476;DHT22;37554;50.362;7.568;2023-05-31T19:31:17;25.80;37.70
51476;DHT22;37554;50.362;7.568;2023-05-31T19:33:43;25.70;37.70
51476;DHT22;37554;50.362;7.568;2023-05-31T19:36:09;25.70;37.80
51476;DHT22;37554;50.362;7.568;2023-05-31T19:38:35;25.60;38.00
51476;DHT22;37554;50.362;7.568;2023-05-31T19:41:00;25.50;38.20
51476;DHT22;37554;50.362;7.568;2023-05-31T19:43:27;25.50;38.30
51476;DHT22;37554;50.362;7.568;2023-05-31T19:45:53;25.30;38.30
51476;DHT22;37554;50.362;7.568;2023-05-31T19:48:18;25.30;38.30
51476;DHT22;37554;50.362;7.568;2023-05-31T19:50:44;25.30;38.10
51476;DHT22;37554;50.362;7.568;2023-05-31T19:53:10;25.30;38.20
51476;DHT22;37554;50.362;7.568;2023-05-31T19:55:36;25.20;38.60
51476;DHT22;37554;50.362;7.568;2023-05-31T19:58:03;25.00;39.00
51476;DHT22;37554;50.362;7.568;2023-05-31T20:00:29;25.10;39.00
51476;DHT22;37554;50.362;7.568;2023-05-31T20:02:54;25.10;38.70
51476;DHT22;37554;50.362;7.568;2023-05-31T20:05:20;25.20;38.60
51476;DHT22;37554;50.362;7.568;2023-05-31T20:07:46;25.30;38.40
51476;DHT22;37554;50.362;7.568;2023-05-31T20:10:11;25.40;38.20
51476;DHT22;37554;50.362;7.568;2023-05-31T20:12:37;25.40;38.10
51476;DHT22;37554;50.362;7.568;2023-05-31T20:15:02;25.40;38.00
51476;DHT22;37554;50.362;7.568;2023-05-31T20:17:29;25.50;38.10
51476;DHT22;37554;50.362;7.568;2023-05-31T20:19:54;25.50;38.10
51476;DHT22;37554;50.362;7.568;2023-05-31T20:22:20;25.50;38.00
51476;DHT22;37554;50.362;7.568;2023-05-31T20:24:46;25.50;38.00
51476;DHT22;37554;50.362;7.568;2023-05-31T20:27:11;25.50;37.90
51476;DHT22;37554;50.362;7.568;2023-05-31T20:29:37;25.50;37.90
51476;DHT22;37554;50.362;7.568;2023-05-31T20:32:03;25.50;38.00
51476;DHT22;37554;50.362;7.568;2023-05-31T20:34:29;25.50;38.10
51476;DHT22;37554;50.362;7.568;2023-05-31T20:36:55;25.50;38.20
51476;DHT22;37554;50.362;7.568;2023-05-31T20:39:21;25.50;38.30
51476;DHT22;37554;50.362;7.568;2023-05-31T20:41:47;25.40;38.40
51476;DHT22;37554;50.362;7.568;2023-05-31T20:44:12;25.40;38.40
51476;DHT22;37554;50.362;7.568;2023-05-31T20:46:38;25.40;38.50
51476;DHT22;37554;50.362;7.568;2023-05-31T20:49:04;25.30;38.80
51476;DHT22;37554;50.362;7.568;2023-05-31T20:51:29;25.30;39.30
51476;DHT22;37554;50.362;7.568;2023-05-31T20:53:55;25.20;39.60
51476;DHT22;37554;50.362;7.568;2023-05-31T20:56:21;25.30;40.00
51476;DHT22;37554;50.362;7.568;2023-05-31T20:58:47;25.20;40.10
51476;DHT22;37554;50.362;7.568;2023-05-31T21:01:16;25.20;40.40
51476;DHT22;37554;50.362;7.568;2023-05-31T21:03:41;25.20;41.20
51476;DHT22;37554;50.362;7.568;2023-05-31T21:06:07;25.10;40.60
51476;DHT22;37554;50.362;7.568;2023-05-31T21:08:33;25.10;40.80
51476;DHT22;37554;50.362;7.568;2023-05-31T21:10:58;25.10;40.90
51476;DHT22;37554;50.362;7.568;2023-05-31T21:13:24;25.10;41.00
51476;DHT22;37554;50.362;7.568;2023-05-31T21:15:50;25.10;41.10
51476;DHT22;37554;50.362;7.568;2023-05-31T21:18:15;25.00;41.00
51476;DHT22;37554;50.362;7.568;2023-05-31T21:20:41;25.00;41.50
51476;DHT22;37554;50.362;7.568;2023-05-31T21:23:07;25.00;41.20
51476;DHT22;37554;50.362;7.568;2023-05-31T21:25:32;25.00;41.20
51476;DHT22;37554;50.362;7.568;2023-05-31T21:27:58;25.00;41.40
51476;DHT22;37554;50.362;7.568;2023-05-31T21:30:23;25.00;41.60
51476;DHT22;37554;50.362;7.568;2023-05-31T21:32:50;24.90;41.80
51476;DHT22;37554;50.362;7.568;2023-05-31T21:35:16;24.90;42.00
51476;DHT22;37554;50.362;7.568;2023-05-31T21:37:42;24.90;42.10
51476;DHT22;37554;50.362;7.568;2023-05-31T21:40:09;24.90;42.20
51476;DHT22;37554;50.362;7.568;2023-05-31T21:42:35;24.80;42.00
51476;DHT22;37554;50.362;7.568;2023-05-31T21:45:00;24.80;41.90
51476;DHT22;37554;50.362;7.568;2023-05-31T21:47:26;24.80;41.70
51476;DHT22;37554;50.362;7.568;2023-05-31T21:49:52;24.80;41.70
51476;DHT22;37554;50.362;7.568;2023-05-31T21:52:18;24.80;41.70
51476;DHT22;37554;50.362;7.568;2023-05-31T21:54:43;24.80;41.70
51476;DHT22;37554;50.362;7.568;2023-05-31T21:57:09;24.80;41.70
51476;DHT22;37554;50.362;7.568;2023-05-31T21:59:36;24.90;41.60
51476;DHT22;37554;50.362;7.568;2023-05-31T22:02:01;24.90;41.50
51476;DHT22;37554;50.362;7.568;2023-05-31T22:04:27;24.90;41.50
51476;DHT22;37554;50.362;7.568;2023-05-31T22:06:53;24.90;41.40
51476;DHT22;37554;50.362;7.568;2023-05-31T22:09:18;24.90;41.40
51476;DHT22;37554;50.362;7.568;2023-05-31T22:11:44;24.90;41.30
51476;DHT22;37554;50.362;7.568;2023-05-31T22:14:09;24.90;41.30
51476;DHT22;37554;50.362;7.568;2023-05-31T22:16:35;24.90;41.30
51476;DHT22;37554;50.362;7.568;2023-05-31T22:19:01;24.80;41.30
51476;DHT22;37554;50.362;7.568;2023-05-31T22:21:28;24.80;41.30
51476;DHT22;37554;50.362;7.568;2023-05-31T22:23:58;24.80;41.30
51476;DHT22;37554;50.362;7.568;2023-05-31T22:26:24;24.80;41.30
51476;DHT22;37554;50.362;7.568;2023-05-31T22:28:50;24.80;41.40
51476;DHT22;37554;50.362;7.568;2023-05-31T22:31:16;24.80;41.50
51476;DHT22;37554;50.362;7.568;2023-05-31T22:33:43;24.80;41.50
51476;DHT22;37554;50.362;7.568;2023-05-31T22:36:09;24.80;41.50
51476;DHT22;37554;50.362;7.568;2023-05-31T22:38:34;24.80;41.50
51476;DHT22;37554;50.362;7.568;2023-05-31T22:41:00;24.80;41.60
51476;DHT22;37554;50.362;7.568;2023-05-31T22:43:26;24.80;41.60
51476;DHT22;37554;50.362;7.568;2023-05-31T22:45:52;24.80;41.70
51476;DHT22;37554;50.362;7.568;2023-05-31T22:48:17;24.70;41.60
51476;DHT22;37554;50.362;7.568;2023-05-31T22:50:43;24.70;41.60
51476;DHT22;37554;50.362;7.568;2023-05-31T22:53:09;24.70;41.60
51476;DHT22;37554;50.362;7.568;2023-05-31T22:55:35;24.70;41.70
51476;DHT22;37554;50.362;7.568;2023-05-31T22:58:02;24.70;41.70
51476;DHT22;37554;50.362;7.568;2023-05-31T23:00:28;24.70;41.70
51476;DHT22;37554;50.362;7.568;2023-05-31T23:02:53;24.70;41.70
51476;DHT22;37554;50.362;7.568;2023-05-31T23:05:19;24.70;41.80
51476;DHT22;37554;50.362;7.568;2023-05-31T23:07:48;24.70;41.80
51476;DHT22;37554;50.362;7.568;2023-05-31T23:10:15;24.70;41.80
51476;DHT22;37554;50.362;7.568;2023-05-31T23:12:44;24.60;41.80
51476;DHT22;37554;50.362;7.568;2023-05-31T23:15:11;24.60;41.80
51476;DHT22;37554;50.362;7.568;2023-05-31T23:17:38;24.60;41.80
51476;DHT22;37554;50.362;7.568;2023-05-31T23:20:04;24.50;41.80
51476;DHT22;37554;50.362;7.568;2023-05-31T23:22:33;24.50;41.80
51476;DHT22;37554;50.362;7.568;2023-05-31T23:24:58;24.50;41.80
51476;DHT22;37554;50.362;7.568;2023-05-31T23:27:24;24.50;41.80
51476;DHT22;37554;50.362;7.568;2023-05-31T23:29:50;24.50;41.90
51476;DHT22;37554;50.362;7.568;2023-05-31T23:32:16;24.50;42.00
51476;DHT22;37554;50.362;7.568;2023-05-31T23:34:41;24.50;42.00
51476;DHT22;37554;50.362;7.568;2023-05-31T23:37:07;24.50;42.10
51476;DHT22;37554;50.362;7.568;2023-05-31T23:39:33;24.40;42.10
51476;DHT22;37554;50.362;7.568;2023-05-31T23:41:59;24.40;42.10
51476;DHT22;37554;50.362;7.568;2023-05-31T23:44:24;24.40;42.20
51476;DHT22;37554;50.362;7.568;2023-05-31T23:46:50;24.40;42.20
51476;DHT22;37554;50.362;7.568;2023-05-31T23:49:16;24.40;42.30